sensor_id;sensor_type;location;lat;lon;timestamp;P1;durP1;ratioP1;P2;durP2;ratioP2
36629;SDS011;36256;42.154;23.002;2023-06-26T00:01:39;14.18;;;7.97;;
36629;SDS011;36256;42.154;23.002;2023-06-26T00:04:07;15.82;;;8.10;;
36629;SDS011;36256;42.154;23.002;2023-06-26T00:06:34;15.88;;;7.82;;
36629;SDS011;36256;42.154;23.002;2023-06-26T00:09:01;16.80;;;8.02;;
36629;SDS011;36256;42.154;23.002;2023-06-26T00:11:27;9.75;;;7.43;;
36629;SDS011;36256;42.154;23.002;2023-06-26T00:13:57;14.45;;;8.05;;
36629;SDS011;36256;42.154;23.002;2023-06-26T00:16:24;10.95;;;7.47;;
36629;SDS011;36256;42.154;23.002;2023-06-26T00:18:50;11.50;;;8.10;;
36629;SDS011;36256;42.154;23.002;2023-06-26T00:21:17;12.00;;;8.27;;
36629;SDS011;36256;42.154;23.002;2023-06-26T00:23:45;12.00;;;7.72;;
36629;SDS011;36256;42.154;23.002;2023-06-26T00:26:12;14.75;;;7.70;;
36629;SDS011;36256;42.154;23.002;2023-06-26T00:28:39;17.60;;;8.40;;
36629;SDS011;36256;42.154;23.002;2023-06-26T00:31:05;13.05;;;7.57;;
36629;SDS011;36256;42.154;23.002;2023-06-26T00:33:32;18.73;;;8.07;;
36629;SDS011;36256;42.154;23.002;2023-06-26T00:35:59;17.73;;;8.77;;
36629;SDS011;36256;42.154;23.002;2023-06-26T00:38:26;12.82;;;8.45;;
36629;SDS011;36256;42.154;23.002;2023-06-26T00:43:21;11.02;;;7.50;;
36629;SDS011;36256;42.154;23.002;2023-06-26T00:45:48;15.68;;;7.80;;
36629;SDS011;36256;42.154;23.002;2023-06-26T00:48:15;14.25;;;8.82;;
36629;SDS011;36256;42.154;23.002;2023-06-26T00:50:42;13.20;;;8.65;;
36629;SDS011;36256;42.154;23.002;2023-06-26T00:55:37;13.60;;;8.85;;
36629;SDS011;36256;42.154;23.002;2023-06-26T00:58:04;13.88;;;9.15;;
36629;SDS011;36256;42.154;23.002;2023-06-26T01:00:31;13.15;;;9.65;;
36629;SDS011;36256;42.154;23.002;2023-06-26T01:02:58;11.68;;;8.38;;
36629;SDS011;36256;42.154;23.002;2023-06-26T01:05:27;17.00;;;9.90;;
36629;SDS011;36256;42.154;23.002;2023-06-26T01:07:54;13.38;;;9.27;;
36629;SDS011;36256;42.154;23.002;2023-06-26T01:10:23;13.68;;;9.07;;
36629;SDS011;36256;42.154;23.002;2023-06-26T01:15:17;13.93;;;8.43;;
36629;SDS011;36256;42.154;23.002;2023-06-26T01:17:44;13.05;;;8.80;;
36629;SDS011;36256;42.154;23.002;2023-06-26T01:20:11;11.95;;;8.05;;
36629;SDS011;36256;42.154;23.002;2023-06-26T01:22:56;12.25;;;8.85;;
36629;SDS011;36256;42.154;23.002;2023-06-26T01:28:17;12.88;;;8.55;;
36629;SDS011;36256;42.154;23.002;2023-06-26T01:30:45;14.02;;;9.23;;
36629;SDS011;36256;42.154;23.002;2023-06-26T01:33:14;17.70;;;9.63;;
36629;SDS011;36256;42.154;23.002;2023-06-26T01:38:19;14.93;;;9.00;;
36629;SDS011;36256;42.154;23.002;2023-06-26T01:40:46;16.77;;;9.07;;
36629;SDS011;36256;42.154;23.002;2023-06-26T01:46:09;16.65;;;9.65;;
36629;SDS011;36256;42.154;23.002;2023-06-26T01:48:44;16.00;;;9.90;;
36629;SDS011;36256;42.154;23.002;2023-06-26T01:51:16;16.85;;;10.13;;
36629;SDS011;36256;42.154;23.002;2023-06-26T01:53:45;17.77;;;9.93;;
36629;SDS011;36256;42.154;23.002;2023-06-26T01:56:16;18.42;;;9.75;;
36629;SDS011;36256;42.154;23.002;2023-06-26T01:58:45;14.52;;;9.82;;
36629;SDS011;36256;42.154;23.002;2023-06-26T02:01:13;18.45;;;10.05;;
36629;SDS011;36256;42.154;23.002;2023-06-26T02:03:40;13.80;;;10.05;;
36629;SDS011;36256;42.154;23.002;2023-06-26T02:06:07;18.20;;;9.40;;
36629;SDS011;36256;42.154;23.002;2023-06-26T02:08:34;19.17;;;9.95;;
36629;SDS011;36256;42.154;23.002;2023-06-26T02:11:02;16.90;;;10.82;;
36629;SDS011;36256;42.154;23.002;2023-06-26T02:13:29;14.20;;;11.55;;
36629;SDS011;36256;42.154;23.002;2023-06-26T02:15:55;18.83;;;11.35;;
36629;SDS011;36256;42.154;23.002;2023-06-26T02:18:22;14.15;;;10.50;;
36629;SDS011;36256;42.154;23.002;2023-06-26T02:25:43;19.23;;;14.32;;
36629;SDS011;36256;42.154;23.002;2023-06-26T02:28:09;20.58;;;14.20;;
36629;SDS011;36256;42.154;23.002;2023-06-26T02:30:36;18.52;;;13.18;;
36629;SDS011;36256;42.154;23.002;2023-06-26T02:33:03;18.58;;;13.90;;
36629;SDS011;36256;42.154;23.002;2023-06-26T02:35:30;18.30;;;12.80;;
36629;SDS011;36256;42.154;23.002;2023-06-26T02:37:59;18.75;;;14.20;;
36629;SDS011;36256;42.154;23.002;2023-06-26T02:40:25;17.48;;;13.57;;
36629;SDS011;36256;42.154;23.002;2023-06-26T02:42:52;21.83;;;14.13;;
36629;SDS011;36256;42.154;23.002;2023-06-26T02:45:19;21.92;;;13.05;;
36629;SDS011;36256;42.154;23.002;2023-06-26T02:47:46;20.42;;;13.35;;
36629;SDS011;36256;42.154;23.002;2023-06-26T02:50:12;20.40;;;12.35;;
36629;SDS011;36256;42.154;23.002;2023-06-26T02:52:40;19.90;;;11.70;;
36629;SDS011;36256;42.154;23.002;2023-06-26T02:55:06;15.18;;;11.98;;
36629;SDS011;36256;42.154;23.002;2023-06-26T02:57:33;15.65;;;11.98;;
36629;SDS011;36256;42.154;23.002;2023-06-26T03:00:00;15.30;;;11.73;;
36629;SDS011;36256;42.154;23.002;2023-06-26T03:02:27;17.63;;;12.13;;
36629;SDS011;36256;42.154;23.002;2023-06-26T03:04:53;16.90;;;12.10;;
36629;SDS011;36256;42.154;23.002;2023-06-26T03:07:20;18.80;;;13.00;;
36629;SDS011;36256;42.154;23.002;2023-06-26T03:09:47;17.77;;;12.23;;
36629;SDS011;36256;42.154;23.002;2023-06-26T03:12:13;21.27;;;13.52;;
36629;SDS011;36256;42.154;23.002;2023-06-26T03:14:40;20.92;;;13.88;;
36629;SDS011;36256;42.154;23.002;2023-06-26T03:17:07;18.98;;;13.77;;
36629;SDS011;36256;42.154;23.002;2023-06-26T03:19:33;19.92;;;14.70;;
36629;SDS011;36256;42.154;23.002;2023-06-26T03:22:00;24.13;;;14.48;;
36629;SDS011;36256;42.154;23.002;2023-06-26T03:24:27;19.60;;;14.38;;
36629;SDS011;36256;42.154;23.002;2023-06-26T03:26:54;17.90;;;13.73;;
36629;SDS011;36256;42.154;23.002;2023-06-26T03:29:21;22.08;;;14.52;;
36629;SDS011;36256;42.154;23.002;2023-06-26T03:31:48;19.77;;;15.00;;
36629;SDS011;36256;42.154;23.002;2023-06-26T03:34:14;21.17;;;14.88;;
36629;SDS011;36256;42.154;23.002;2023-06-26T03:36:41;20.65;;;14.63;;
36629;SDS011;36256;42.154;23.002;2023-06-26T03:39:08;22.80;;;15.70;;
36629;SDS011;36256;42.154;23.002;2023-06-26T03:41:35;21.50;;;14.57;;
36629;SDS011;36256;42.154;23.002;2023-06-26T03:44:01;22.70;;;14.95;;
36629;SDS011;36256;42.154;23.002;2023-06-26T03:46:29;20.38;;;13.82;;
36629;SDS011;36256;42.154;23.002;2023-06-26T03:48:56;18.65;;;14.30;;
36629;SDS011;36256;42.154;23.002;2023-06-26T03:51:23;19.65;;;14.93;;
36629;SDS011;36256;42.154;23.002;2023-06-26T03:53:49;19.77;;;14.70;;
36629;SDS011;36256;42.154;23.002;2023-06-26T03:56:17;21.98;;;14.95;;
36629;SDS011;36256;42.154;23.002;2023-06-26T03:58:44;19.45;;;14.50;;
36629;SDS011;36256;42.154;23.002;2023-06-26T04:01:11;18.45;;;14.13;;
36629;SDS011;36256;42.154;23.002;2023-06-26T04:03:38;21.38;;;15.88;;
36629;SDS011;36256;42.154;23.002;2023-06-26T04:06:04;18.52;;;14.93;;
36629;SDS011;36256;42.154;23.002;2023-06-26T04:08:32;18.63;;;15.48;;
36629;SDS011;36256;42.154;23.002;2023-06-26T04:10:58;20.45;;;15.98;;
36629;SDS011;36256;42.154;23.002;2023-06-26T04:13:26;20.20;;;15.32;;
36629;SDS011;36256;42.154;23.002;2023-06-26T04:15:52;19.88;;;16.23;;
36629;SDS011;36256;42.154;23.002;2023-06-26T04:18:19;21.92;;;15.63;;
36629;SDS011;36256;42.154;23.002;2023-06-26T04:28:27;19.13;;;16.67;;
36629;SDS011;36256;42.154;23.002;2023-06-26T04:30:54;22.50;;;17.13;;
36629;SDS011;36256;42.154;23.002;2023-06-26T04:33:21;21.75;;;17.27;;
36629;SDS011;36256;42.154;23.002;2023-06-26T04:35:48;20.63;;;17.20;;
36629;SDS011;36256;42.154;23.002;2023-06-26T04:54:22;17.98;;;16.17;;
36629;SDS011;36256;42.154;23.002;2023-06-26T04:56:49;20.60;;;16.73;;
36629;SDS011;36256;42.154;23.002;2023-06-26T04:59:16;21.48;;;16.35;;
36629;SDS011;36256;42.154;23.002;2023-06-26T05:01:43;20.42;;;16.33;;
36629;SDS011;36256;42.154;23.002;2023-06-26T05:04:15;24.65;;;16.10;;
36629;SDS011;36256;42.154;23.002;2023-06-26T05:06:42;19.42;;;15.32;;
36629;SDS011;36256;42.154;23.002;2023-06-26T05:09:09;21.08;;;15.98;;
36629;SDS011;36256;42.154;23.002;2023-06-26T05:11:37;23.02;;;15.35;;
36629;SDS011;36256;42.154;23.002;2023-06-26T05:14:04;19.63;;;14.82;;
36629;SDS011;36256;42.154;23.002;2023-06-26T05:16:33;18.98;;;15.63;;
36629;SDS011;36256;42.154;23.002;2023-06-26T05:21:28;23.50;;;15.65;;
36629;SDS011;36256;42.154;23.002;2023-06-26T05:23:55;20.98;;;15.15;;
36629;SDS011;36256;42.154;23.002;2023-06-26T05:26:23;17.13;;;14.13;;
36629;SDS011;36256;42.154;23.002;2023-06-26T05:28:52;20.73;;;14.75;;
36629;SDS011;36256;42.154;23.002;2023-06-26T05:31:19;17.15;;;14.13;;
36629;SDS011;36256;42.154;23.002;2023-06-26T05:33:46;18.50;;;14.48;;
36629;SDS011;36256;42.154;23.002;2023-06-26T05:36:16;20.10;;;15.48;;
36629;SDS011;36256;42.154;23.002;2023-06-26T05:38:43;17.48;;;13.02;;
36629;SDS011;36256;42.154;23.002;2023-06-26T05:41:10;17.35;;;14.48;;
36629;SDS011;36256;42.154;23.002;2023-06-26T05:43:37;17.88;;;13.77;;
36629;SDS011;36256;42.154;23.002;2023-06-26T05:46:04;16.33;;;13.70;;
36629;SDS011;36256;42.154;23.002;2023-06-26T05:48:30;18.35;;;13.50;;
36629;SDS011;36256;42.154;23.002;2023-06-26T05:50:57;16.23;;;11.93;;
36629;SDS011;36256;42.154;23.002;2023-06-26T05:53:24;15.40;;;11.63;;
36629;SDS011;36256;42.154;23.002;2023-06-26T05:55:51;15.05;;;12.38;;
36629;SDS011;36256;42.154;23.002;2023-06-26T05:58:18;24.70;;;11.57;;
36629;SDS011;36256;42.154;23.002;2023-06-26T06:00:47;13.15;;;11.13;;
36629;SDS011;36256;42.154;23.002;2023-06-26T06:03:14;15.82;;;12.40;;
36629;SDS011;36256;42.154;23.002;2023-06-26T06:05:41;14.07;;;11.27;;
36629;SDS011;36256;42.154;23.002;2023-06-26T06:08:08;14.35;;;10.60;;
36629;SDS011;36256;42.154;23.002;2023-06-26T06:10:35;17.95;;;11.23;;
36629;SDS011;36256;42.154;23.002;2023-06-26T06:15:28;22.10;;;12.73;;
36629;SDS011;36256;42.154;23.002;2023-06-26T06:17:56;16.90;;;11.32;;
36629;SDS011;36256;42.154;23.002;2023-06-26T06:20:24;14.73;;;12.68;;
36629;SDS011;36256;42.154;23.002;2023-06-26T06:22:51;17.65;;;12.10;;
36629;SDS011;36256;42.154;23.002;2023-06-26T06:25:18;15.95;;;12.50;;
36629;SDS011;36256;42.154;23.002;2023-06-26T06:27:44;16.63;;;12.32;;
36629;SDS011;36256;42.154;23.002;2023-06-26T06:30:11;14.88;;;12.10;;
36629;SDS011;36256;42.154;23.002;2023-06-26T06:32:38;17.80;;;11.98;;
36629;SDS011;36256;42.154;23.002;2023-06-26T06:35:05;16.08;;;11.82;;
36629;SDS011;36256;42.154;23.002;2023-06-26T06:37:37;16.73;;;12.15;;
36629;SDS011;36256;42.154;23.002;2023-06-26T06:40:05;14.80;;;11.90;;
36629;SDS011;36256;42.154;23.002;2023-06-26T06:42:33;12.40;;;11.10;;
36629;SDS011;36256;42.154;23.002;2023-06-26T06:45:01;14.15;;;10.95;;
36629;SDS011;36256;42.154;23.002;2023-06-26T06:47:28;15.77;;;11.35;;
36629;SDS011;36256;42.154;23.002;2023-06-26T06:49:55;11.70;;;10.60;;
36629;SDS011;36256;42.154;23.002;2023-06-26T06:57:20;13.68;;;11.50;;
36629;SDS011;36256;42.154;23.002;2023-06-26T06:59:47;12.02;;;10.63;;
36629;SDS011;36256;42.154;23.002;2023-06-26T07:02:16;13.57;;;11.55;;
36629;SDS011;36256;42.154;23.002;2023-06-26T07:04:44;13.00;;;10.63;;
36629;SDS011;36256;42.154;23.002;2023-06-26T07:07:11;11.93;;;10.70;;
36629;SDS011;36256;42.154;23.002;2023-06-26T07:09:40;13.32;;;10.60;;
36629;SDS011;36256;42.154;23.002;2023-06-26T07:17:00;15.57;;;10.70;;
36629;SDS011;36256;42.154;23.002;2023-06-26T07:19:27;11.50;;;10.13;;
36629;SDS011;36256;42.154;23.002;2023-06-26T07:21:54;14.07;;;10.18;;
36629;SDS011;36256;42.154;23.002;2023-06-26T07:24:20;13.02;;;9.80;;
36629;SDS011;36256;42.154;23.002;2023-06-26T07:26:47;11.77;;;10.52;;
36629;SDS011;36256;42.154;23.002;2023-06-26T07:29:14;11.35;;;9.57;;
36629;SDS011;36256;42.154;23.002;2023-06-26T07:31:41;11.45;;;9.60;;
36629;SDS011;36256;42.154;23.002;2023-06-26T07:34:08;12.32;;;9.50;;
36629;SDS011;36256;42.154;23.002;2023-06-26T07:36:35;10.60;;;9.50;;
36629;SDS011;36256;42.154;23.002;2023-06-26T07:39:01;11.18;;;9.32;;
36629;SDS011;36256;42.154;23.002;2023-06-26T07:41:28;10.35;;;9.35;;
36629;SDS011;36256;42.154;23.002;2023-06-26T07:43:58;10.52;;;9.43;;
36629;SDS011;36256;42.154;23.002;2023-06-26T07:46:25;9.27;;;8.27;;
36629;SDS011;36256;42.154;23.002;2023-06-26T07:48:52;12.52;;;8.50;;
36629;SDS011;36256;42.154;23.002;2023-06-26T07:51:19;11.55;;;8.52;;
36629;SDS011;36256;42.154;23.002;2023-06-26T07:58:39;9.60;;;8.38;;
36629;SDS011;36256;42.154;23.002;2023-06-26T08:01:06;9.35;;;8.13;;
36629;SDS011;36256;42.154;23.002;2023-06-26T08:03:33;9.48;;;7.90;;
36629;SDS011;36256;42.154;23.002;2023-06-26T08:06:01;9.05;;;8.02;;
36629;SDS011;36256;42.154;23.002;2023-06-26T08:08:29;11.65;;;8.52;;
36629;SDS011;36256;42.154;23.002;2023-06-26T08:10:56;19.70;;;9.35;;
36629;SDS011;36256;42.154;23.002;2023-06-26T08:13:22;16.08;;;9.95;;
36629;SDS011;36256;42.154;23.002;2023-06-26T08:15:49;10.73;;;9.60;;
36629;SDS011;36256;42.154;23.002;2023-06-26T08:18:17;10.45;;;8.30;;
36629;SDS011;36256;42.154;23.002;2023-06-26T08:20:44;10.38;;;8.52;;
36629;SDS011;36256;42.154;23.002;2023-06-26T08:23:11;10.35;;;8.95;;
36629;SDS011;36256;42.154;23.002;2023-06-26T08:25:37;10.05;;;8.32;;
36629;SDS011;36256;42.154;23.002;2023-06-26T08:28:04;12.45;;;8.77;;
36629;SDS011;36256;42.154;23.002;2023-06-26T08:30:31;14.43;;;10.15;;
36629;SDS011;36256;42.154;23.002;2023-06-26T08:32:59;15.93;;;8.80;;
36629;SDS011;36256;42.154;23.002;2023-06-26T08:35:25;8.20;;;7.40;;
36629;SDS011;36256;42.154;23.002;2023-06-26T08:37:52;8.65;;;7.50;;
36629;SDS011;36256;42.154;23.002;2023-06-26T08:40:21;9.68;;;7.85;;
36629;SDS011;36256;42.154;23.002;2023-06-26T08:42:48;9.82;;;8.85;;
36629;SDS011;36256;42.154;23.002;2023-06-26T08:45:19;10.90;;;9.68;;
36629;SDS011;36256;42.154;23.002;2023-06-26T08:47:46;10.85;;;7.88;;
36629;SDS011;36256;42.154;23.002;2023-06-26T08:50:17;8.23;;;7.43;;
36629;SDS011;36256;42.154;23.002;2023-06-26T08:53:08;11.23;;;7.38;;
36629;SDS011;36256;42.154;23.002;2023-06-26T08:55:41;11.10;;;7.75;;
36629;SDS011;36256;42.154;23.002;2023-06-26T08:58:10;11.55;;;7.28;;
36629;SDS011;36256;42.154;23.002;2023-06-26T09:00:39;7.68;;;6.88;;
36629;SDS011;36256;42.154;23.002;2023-06-26T09:03:06;7.10;;;6.30;;
36629;SDS011;36256;42.154;23.002;2023-06-26T09:05:36;8.13;;;7.18;;
36629;SDS011;36256;42.154;23.002;2023-06-26T09:08:02;9.07;;;7.22;;
36629;SDS011;36256;42.154;23.002;2023-06-26T09:10:29;8.32;;;6.85;;
36629;SDS011;36256;42.154;23.002;2023-06-26T09:12:56;10.43;;;7.53;;
36629;SDS011;36256;42.154;23.002;2023-06-26T09:15:24;11.88;;;7.88;;
36629;SDS011;36256;42.154;23.002;2023-06-26T09:17:53;9.55;;;7.90;;
36629;SDS011;36256;42.154;23.002;2023-06-26T09:20:25;8.90;;;7.97;;
36629;SDS011;36256;42.154;23.002;2023-06-26T09:22:54;9.68;;;8.63;;
36629;SDS011;36256;42.154;23.002;2023-06-26T09:25:22;9.43;;;8.52;;
36629;SDS011;36256;42.154;23.002;2023-06-26T09:27:49;12.88;;;9.07;;
36629;SDS011;36256;42.154;23.002;2023-06-26T09:32:43;9.82;;;8.82;;
36629;SDS011;36256;42.154;23.002;2023-06-26T09:35:10;10.57;;;9.43;;
36629;SDS011;36256;42.154;23.002;2023-06-26T09:37:37;11.65;;;9.50;;
36629;SDS011;36256;42.154;23.002;2023-06-26T09:40:04;9.70;;;8.13;;
36629;SDS011;36256;42.154;23.002;2023-06-26T09:52:19;11.38;;;10.25;;
36629;SDS011;36256;42.154;23.002;2023-06-26T09:54:46;11.25;;;10.10;;
36629;SDS011;36256;42.154;23.002;2023-06-26T09:57:13;11.65;;;10.27;;
36629;SDS011;36256;42.154;23.002;2023-06-26T09:59:43;9.45;;;8.15;;
36629;SDS011;36256;42.154;23.002;2023-06-26T10:02:16;9.55;;;7.63;;
36629;SDS011;36256;42.154;23.002;2023-06-26T10:04:43;10.02;;;7.10;;
36629;SDS011;36256;42.154;23.002;2023-06-26T10:07:10;9.65;;;7.30;;
36629;SDS011;36256;42.154;23.002;2023-06-26T10:09:40;9.77;;;6.72;;
36629;SDS011;36256;42.154;23.002;2023-06-26T10:12:13;7.05;;;6.35;;
36629;SDS011;36256;42.154;23.002;2023-06-26T10:14:46;7.55;;;6.80;;
36629;SDS011;36256;42.154;23.002;2023-06-26T10:17:15;6.07;;;5.47;;
36629;SDS011;36256;42.154;23.002;2023-06-26T10:19:45;6.88;;;5.70;;
36629;SDS011;36256;42.154;23.002;2023-06-26T10:22:17;6.72;;;5.28;;
36629;SDS011;36256;42.154;23.002;2023-06-26T10:24:47;7.07;;;4.97;;
36629;SDS011;36256;42.154;23.002;2023-06-26T10:27:19;7.18;;;5.53;;
36629;SDS011;36256;42.154;23.002;2023-06-26T10:29:59;6.15;;;4.80;;
36629;SDS011;36256;42.154;23.002;2023-06-26T10:32:29;6.22;;;4.65;;
36629;SDS011;36256;42.154;23.002;2023-06-26T10:40:09;7.22;;;6.53;;
36629;SDS011;36256;42.154;23.002;2023-06-26T10:42:37;10.75;;;7.03;;
36629;SDS011;36256;42.154;23.002;2023-06-26T10:45:09;11.57;;;6.88;;
36629;SDS011;36256;42.154;23.002;2023-06-26T10:47:39;10.23;;;6.93;;
36629;SDS011;36256;42.154;23.002;2023-06-26T10:55:55;7.35;;;6.65;;
36629;SDS011;36256;42.154;23.002;2023-06-26T10:58:27;7.97;;;7.15;;
36629;SDS011;36256;42.154;23.002;2023-06-26T11:04:05;9.20;;;7.43;;
36629;SDS011;36256;42.154;23.002;2023-06-26T11:06:34;10.57;;;7.13;;
36629;SDS011;36256;42.154;23.002;2023-06-26T11:14:22;9.10;;;7.07;;
36629;SDS011;36256;42.154;23.002;2023-06-26T11:16:50;7.90;;;6.70;;
36629;SDS011;36256;42.154;23.002;2023-06-26T11:19:17;9.63;;;6.72;;
36629;SDS011;36256;42.154;23.002;2023-06-26T11:21:45;7.57;;;6.10;;
36629;SDS011;36256;42.154;23.002;2023-06-26T11:26:40;7.57;;;6.13;;
36629;SDS011;36256;42.154;23.002;2023-06-26T11:29:07;7.85;;;6.25;;
36629;SDS011;36256;42.154;23.002;2023-06-26T11:31:36;7.60;;;6.00;;
36629;SDS011;36256;42.154;23.002;2023-06-26T11:34:05;10.02;;;6.18;;
36629;SDS011;36256;42.154;23.002;2023-06-26T11:36:35;8.95;;;5.97;;
36629;SDS011;36256;42.154;23.002;2023-06-26T11:39:06;6.82;;;6.13;;
36629;SDS011;36256;42.154;23.002;2023-06-26T11:41:34;9.73;;;6.13;;
36629;SDS011;36256;42.154;23.002;2023-06-26T11:44:03;6.57;;;5.97;;
36629;SDS011;36256;42.154;23.002;2023-06-26T11:46:30;11.15;;;6.20;;
36629;SDS011;36256;42.154;23.002;2023-06-26T11:48:58;6.93;;;6.13;;
36629;SDS011;36256;42.154;23.002;2023-06-26T11:51:28;7.50;;;5.80;;
36629;SDS011;36256;42.154;23.002;2023-06-26T11:53:55;6.53;;;5.68;;
36629;SDS011;36256;42.154;23.002;2023-06-26T11:56:22;8.60;;;6.50;;
36629;SDS011;36256;42.154;23.002;2023-06-26T11:59:04;8.40;;;6.25;;
36629;SDS011;36256;42.154;23.002;2023-06-26T12:01:40;6.47;;;5.80;;
36629;SDS011;36256;42.154;23.002;2023-06-26T12:04:09;8.02;;;5.90;;
36629;SDS011;36256;42.154;23.002;2023-06-26T12:06:37;10.15;;;6.57;;
36629;SDS011;36256;42.154;23.002;2023-06-26T12:09:07;7.38;;;6.20;;
36629;SDS011;36256;42.154;23.002;2023-06-26T12:11:36;7.03;;;6.32;;
36629;SDS011;36256;42.154;23.002;2023-06-26T12:14:05;10.15;;;6.47;;
36629;SDS011;36256;42.154;23.002;2023-06-26T12:16:34;7.68;;;5.70;;
36629;SDS011;36256;42.154;23.002;2023-06-26T12:19:02;9.63;;;5.97;;
36629;SDS011;36256;42.154;23.002;2023-06-26T12:24:00;9.80;;;6.53;;
36629;SDS011;36256;42.154;23.002;2023-06-26T12:26:30;11.23;;;6.65;;
36629;SDS011;36256;42.154;23.002;2023-06-26T12:29:03;7.15;;;6.28;;
36629;SDS011;36256;42.154;23.002;2023-06-26T12:31:31;7.07;;;6.03;;
36629;SDS011;36256;42.154;23.002;2023-06-26T12:33:59;10.00;;;6.55;;
36629;SDS011;36256;42.154;23.002;2023-06-26T12:36:26;7.38;;;6.57;;
36629;SDS011;36256;42.154;23.002;2023-06-26T12:38:53;9.32;;;6.80;;
36629;SDS011;36256;42.154;23.002;2023-06-26T12:41:23;7.50;;;5.72;;
36629;SDS011;36256;42.154;23.002;2023-06-26T12:43:55;7.07;;;5.82;;
36629;SDS011;36256;42.154;23.002;2023-06-26T12:46:33;7.78;;;5.72;;
36629;SDS011;36256;42.154;23.002;2023-06-26T12:49:01;6.53;;;5.18;;
36629;SDS011;36256;42.154;23.002;2023-06-26T12:51:37;7.38;;;5.28;;
36629;SDS011;36256;42.154;23.002;2023-06-26T12:54:04;8.98;;;4.95;;
36629;SDS011;36256;42.154;23.002;2023-06-26T12:56:31;7.47;;;5.43;;
36629;SDS011;36256;42.154;23.002;2023-06-26T12:58:57;11.55;;;5.82;;
36629;SDS011;36256;42.154;23.002;2023-06-26T13:01:24;8.98;;;4.90;;
36629;SDS011;36256;42.154;23.002;2023-06-26T13:03:51;6.40;;;4.55;;
36629;SDS011;36256;42.154;23.002;2023-06-26T13:06:18;7.50;;;4.95;;
36629;SDS011;36256;42.154;23.002;2023-06-26T13:11:13;5.65;;;4.95;;
36629;SDS011;36256;42.154;23.002;2023-06-26T13:13:43;6.97;;;5.03;;
36629;SDS011;36256;42.154;23.002;2023-06-26T13:16:16;8.02;;;5.05;;
36629;SDS011;36256;42.154;23.002;2023-06-26T13:18:44;5.50;;;5.00;;
36629;SDS011;36256;42.154;23.002;2023-06-26T13:23:38;6.45;;;5.55;;
36629;SDS011;36256;42.154;23.002;2023-06-26T13:26:05;8.77;;;5.32;;
36629;SDS011;36256;42.154;23.002;2023-06-26T13:33:26;6.30;;;5.60;;
36629;SDS011;36256;42.154;23.002;2023-06-26T13:35:52;6.32;;;5.55;;
36629;SDS011;36256;42.154;23.002;2023-06-26T13:38:21;7.05;;;5.82;;
36629;SDS011;36256;42.154;23.002;2023-06-26T13:40:52;6.25;;;5.60;;
36629;SDS011;36256;42.154;23.002;2023-06-26T13:43:20;7.53;;;5.75;;
36629;SDS011;36256;42.154;23.002;2023-06-26T13:45:48;6.78;;;5.90;;
36629;SDS011;36256;42.154;23.002;2023-06-26T13:48:16;8.80;;;6.07;;
36629;SDS011;36256;42.154;23.002;2023-06-26T13:50:44;9.80;;;5.45;;
36629;SDS011;36256;42.154;23.002;2023-06-26T13:53:20;7.37;;;5.50;;
36629;SDS011;36256;42.154;23.002;2023-06-26T13:55:47;9.10;;;5.90;;
36629;SDS011;36256;42.154;23.002;2023-06-26T13:58:15;6.50;;;5.90;;
36629;SDS011;36256;42.154;23.002;2023-06-26T14:00:41;6.50;;;5.55;;
36629;SDS011;36256;42.154;23.002;2023-06-26T14:03:11;7.65;;;5.68;;
36629;SDS011;36256;42.154;23.002;2023-06-26T14:05:38;7.43;;;5.80;;
36629;SDS011;36256;42.154;23.002;2023-06-26T14:08:08;7.32;;;5.95;;
36629;SDS011;36256;42.154;23.002;2023-06-26T14:10:35;6.90;;;6.20;;
36629;SDS011;36256;42.154;23.002;2023-06-26T14:13:03;8.43;;;5.88;;
36629;SDS011;36256;42.154;23.002;2023-06-26T14:15:30;8.02;;;6.43;;
36629;SDS011;36256;42.154;23.002;2023-06-26T14:17:57;7.20;;;6.38;;
36629;SDS011;36256;42.154;23.002;2023-06-26T14:20:24;7.55;;;6.85;;
36629;SDS011;36256;42.154;23.002;2023-06-26T14:22:52;6.80;;;6.10;;
36629;SDS011;36256;42.154;23.002;2023-06-26T14:25:18;9.48;;;6.70;;
36629;SDS011;36256;42.154;23.002;2023-06-26T14:27:45;8.15;;;6.25;;
36629;SDS011;36256;42.154;23.002;2023-06-26T14:30:12;62.70;;;10.02;;
36629;SDS011;36256;42.154;23.002;2023-06-26T14:32:39;7.85;;;6.72;;
36629;SDS011;36256;42.154;23.002;2023-06-26T14:35:06;6.85;;;6.05;;
36629;SDS011;36256;42.154;23.002;2023-06-26T14:40:02;7.13;;;6.35;;
36629;SDS011;36256;42.154;23.002;2023-06-26T14:42:29;7.05;;;6.32;;
36629;SDS011;36256;42.154;23.002;2023-06-26T14:44:56;7.03;;;6.32;;
36629;SDS011;36256;42.154;23.002;2023-06-26T14:47:23;8.82;;;6.30;;
36629;SDS011;36256;42.154;23.002;2023-06-26T14:54:44;6.75;;;6.05;;
36629;SDS011;36256;42.154;23.002;2023-06-26T14:57:10;6.15;;;5.55;;
36629;SDS011;36256;42.154;23.002;2023-06-26T14:59:37;7.32;;;5.85;;
36629;SDS011;36256;42.154;23.002;2023-06-26T15:02:04;8.32;;;5.70;;
36629;SDS011;36256;42.154;23.002;2023-06-26T15:04:31;5.72;;;5.13;;
36629;SDS011;36256;42.154;23.002;2023-06-26T15:06:58;6.22;;;5.47;;
36629;SDS011;36256;42.154;23.002;2023-06-26T15:09:26;6.20;;;5.60;;
36629;SDS011;36256;42.154;23.002;2023-06-26T15:11:52;5.75;;;5.00;;
36629;SDS011;36256;42.154;23.002;2023-06-26T15:14:19;5.55;;;4.85;;
36629;SDS011;36256;42.154;23.002;2023-06-26T15:16:46;5.40;;;4.90;;
36629;SDS011;36256;42.154;23.002;2023-06-26T15:19:12;5.95;;;5.38;;
36629;SDS011;36256;42.154;23.002;2023-06-26T15:21:39;6.38;;;5.47;;
36629;SDS011;36256;42.154;23.002;2023-06-26T15:24:08;6.20;;;5.60;;
36629;SDS011;36256;42.154;23.002;2023-06-26T15:26:35;6.93;;;5.22;;
36629;SDS011;36256;42.154;23.002;2023-06-26T15:29:02;7.65;;;5.20;;
36629;SDS011;36256;42.154;23.002;2023-06-26T15:31:29;6.57;;;5.35;;
36629;SDS011;36256;42.154;23.002;2023-06-26T15:33:59;7.72;;;4.88;;
36629;SDS011;36256;42.154;23.002;2023-06-26T15:36:26;6.65;;;5.28;;
36629;SDS011;36256;42.154;23.002;2023-06-26T15:38:53;6.00;;;5.40;;
36629;SDS011;36256;42.154;23.002;2023-06-26T15:41:19;5.60;;;5.10;;
36629;SDS011;36256;42.154;23.002;2023-06-26T15:43:46;5.90;;;5.30;;
36629;SDS011;36256;42.154;23.002;2023-06-26T15:46:13;5.78;;;5.22;;
36629;SDS011;36256;42.154;23.002;2023-06-26T15:48:39;6.78;;;5.32;;
36629;SDS011;36256;42.154;23.002;2023-06-26T15:51:07;6.65;;;5.95;;
36629;SDS011;36256;42.154;23.002;2023-06-26T15:53:35;6.20;;;5.60;;
36629;SDS011;36256;42.154;23.002;2023-06-26T15:56:06;8.82;;;5.55;;
36629;SDS011;36256;42.154;23.002;2023-06-26T15:58:35;7.60;;;5.90;;
36629;SDS011;36256;42.154;23.002;2023-06-26T16:01:08;7.63;;;5.65;;
36629;SDS011;36256;42.154;23.002;2023-06-26T16:03:35;6.30;;;5.70;;
36629;SDS011;36256;42.154;23.002;2023-06-26T16:06:02;6.15;;;5.28;;
36629;SDS011;36256;42.154;23.002;2023-06-26T16:08:29;6.55;;;5.40;;
36629;SDS011;36256;42.154;23.002;2023-06-26T16:10:56;6.35;;;5.75;;
36629;SDS011;36256;42.154;23.002;2023-06-26T16:13:23;6.57;;;5.85;;
36629;SDS011;36256;42.154;23.002;2023-06-26T16:15:51;6.63;;;5.93;;
36629;SDS011;36256;42.154;23.002;2023-06-26T16:18:18;8.18;;;5.43;;
36629;SDS011;36256;42.154;23.002;2023-06-26T16:20:45;7.20;;;6.00;;
36629;SDS011;36256;42.154;23.002;2023-06-26T16:23:12;6.30;;;5.63;;
36629;SDS011;36256;42.154;23.002;2023-06-26T16:25:39;7.35;;;6.05;;